Map

Track Data

SID SEASON NUMBER BASIN SUBBASIN NAME ISO_TIME NATURE LAT LON WMO_WIND WMO_PRES WMO_AGENCY TRACK_TYPE DIST2LAND LANDFALL IFLAG USA_AGENCY USA_ATCF_ID USA_LAT USA_LON USA_RECORD USA_STATUS USA_WIND USA_PRES USA_SSHS USA_R34_NE USA_R34_SE USA_R34_SW USA_R34_NW USA_R50_NE USA_R50_SE USA_R50_SW USA_R50_NW USA_R64_NE USA_R64_SE USA_R64_SW USA_R64_NW USA_POCI USA_ROCI USA_RMW USA_EYE TOKYO_LAT TOKYO_LON TOKYO_GRADE TOKYO_WIND TOKYO_PRES TOKYO_R50_DIR TOKYO_R50_LONG TOKYO_R50_SHORT TOKYO_R30_DIR TOKYO_R30_LONG TOKYO_R30_SHORT TOKYO_LAND CMA_LAT CMA_LON CMA_CAT CMA_WIND CMA_PRES HKO_LAT HKO_LON HKO_CAT HKO_WIND HKO_PRES NEWDELHI_LAT NEWDELHI_LON NEWDELHI_GRADE NEWDELHI_WIND NEWDELHI_PRES NEWDELHI_CI NEWDELHI_DP NEWDELHI_POCI REUNION_LAT REUNION_LON REUNION_TYPE REUNION_WIND REUNION_PRES REUNION_TNUM REUNION_CI REUNION_RMW REUNION_R34_NE REUNION_R34_SE REUNION_R34_SW REUNION_R34_NW REUNION_R50_NE REUNION_R50_SE REUNION_R50_SW REUNION_R50_NW REUNION_R64_NE REUNION_R64_SE REUNION_R64_SW REUNION_R64_NW BOM_LAT BOM_LON BOM_TYPE BOM_WIND BOM_PRES BOM_TNUM BOM_CI BOM_RMW BOM_R34_NE BOM_R34_SE BOM_R34_SW BOM_R34_NW BOM_R50_NE BOM_R50_SE BOM_R50_SW BOM_R50_NW BOM_R64_NE BOM_R64_SE BOM_R64_SW BOM_R64_NW BOM_ROCI BOM_POCI BOM_EYE BOM_POS_METHOD BOM_PRES_METHOD NADI_LAT NADI_LON NADI_CAT NADI_WIND NADI_PRES WELLINGTON_LAT WELLINGTON_LON WELLINGTON_WIND WELLINGTON_PRES DS824_LAT DS824_LON DS824_STAGE DS824_WIND DS824_PRES TD9636_LAT TD9636_LON TD9636_STAGE TD9636_WIND TD9636_PRES TD9635_LAT TD9635_LON TD9635_WIND TD9635_PRES TD9635_ROCI NEUMANN_LAT NEUMANN_LON NEUMANN_CLASS NEUMANN_WIND NEUMANN_PRES MLC_LAT MLC_LON MLC_CLASS MLC_WIND MLC_PRES USA_GUST BOM_GUST BOM_GUST_PER REUNION_GUST REUNION_GUST_PER USA_SEAHGT USA_SEARAD_NE USA_SEARAD_SE USA_SEARAD_SW USA_SEARAD_NW STORM_SPEED STORM_DIR
1973319N13090 1973 123 NI BB NOT_NAMED 1973-11-14 12:00:00 TS 12.5000 89.5000 main 640 640 O________OO___ jtwc_io IO131973 12.5000 89.5000 -1 12.5000 89.5000 TC 12.5000 89.5000 1 3 305
1973319N13090 1973 123 NI BB NOT_NAMED 1973-11-14 15:00:00 TS 12.5980 89.3531 main 642 642 P________PP___ IO131973 12.6025 89.3500 -1 12.6025 89.3500 TC 12.5891 89.3594 1 3 304
1973319N13090 1973 123 NI BB NOT_NAMED 1973-11-14 18:00:00 TS 12.6942 89.2050 main 653 653 O________OP___ jtwc_io IO131973 12.7000 89.2000 -1 12.7000 89.2000 TC 12.6825 89.2150 1 4 303
1973319N13090 1973 123 NI BB NOT_NAMED 1973-11-14 21:00:00 TS 12.7899 89.0543 main 655 655 P________PP___ IO131973 12.7925 89.0500 -1 12.7925 89.0500 TC 12.7847 89.0631 1 4 305
1973319N13090 1973 123 NI BB NOT_NAMED 1973-11-15 00:00:00 TS 12.9000 88.9000 main 668 668 O________OO___ jtwc_io IO131973 12.9000 88.9000 -1 12.9000 88.9000 TC 12.9000 88.9000 1 4 309
1973319N13090 1973 123 NI BB NOT_NAMED 1973-11-15 03:00:00 TS 13.0344 88.7419 main 680 675 P________PP___ IO131973 13.0350 88.7500 -1 13.0350 88.7500 TC 13.0332 88.7257 1 4 314
1973319N13090 1973 123 NI BB NOT_NAMED 1973-11-15 06:00:00 TS 13.1967 88.5851 main 679 679 O________OP___ jtwc_io IO131973 13.2000 88.6000 XX 35 -5 13.2000 88.6000 TC 35 13.1901 88.5552 1 5 318
1973319N13090 1973 123 NI BB NOT_NAMED 1973-11-15 09:00:00 TS 13.3823 88.4257 main 688 683 P________PP___ IO131973 13.3850 88.4350 XX 37 -5 13.3850 88.4350 TC 37 13.3769 88.4070 1 5 325
1973319N13090 1973 123 NI BB NOT_NAMED 1973-11-15 12:00:00 TS 13.6000 88.3000 main 689 667 O________OO___ jtwc_io IO131973 13.6000 88.3000 XX 40 -5 13.6000 88.3000 TC 40 13.6000 88.3000 2 5 337
1973319N13090 1973 123 NI BB NOT_NAMED 1973-11-15 15:00:00 TS 13.8329 88.2309 main 667 642 P________PP___ IO131973 13.8275 88.2200 XX 42 -5 13.8275 88.2200 TC 42 13.8437 88.2527 2 5 351
1973319N13090 1973 123 NI BB NOT_NAMED 1973-11-15 18:00:00 TS 14.1083 88.2158 main 642 617 O________OP___ jtwc_io IO131973 14.1000 88.2000 XX 45 -5 14.1000 88.2000 TC 45 14.1250 88.2474 2 6 0
1973319N13090 1973 123 NI BB NOT_NAMED 1973-11-15 21:00:00 TS 14.4329 88.2511 main 625 594 P________PP___ IO131973 14.4275 88.2424 XX 47 -5 14.4275 88.2424 TC 47 14.4437 88.2684 2 7 7
1973319N13090 1973 123 NI BB NOT_NAMED 1973-11-16 00:00:00 TS 14.8000 88.3000 main 594 562 O________OO___ jtwc_io IO131973 14.8000 88.3000 XX 50 -5 14.8000 88.3000 TC 50 14.8000 88.3000 2 7 3
1973319N13090 1973 123 NI BB NOT_NAMED 1973-11-16 03:00:00 TS 15.1755 88.2994 main 562 531 P________PP___ IO131973 15.1850 88.3001 XX 52 -5 15.1850 88.3001 TC 52 15.1566 88.2979 2 8 1
1973319N13090 1973 123 NI BB NOT_NAMED 1973-11-16 06:00:00 TS 15.5842 88.3019 main 531 490 O________OP___ jtwc_io IO131973 15.6000 88.3000 XX 55 -5 15.6000 88.3000 TC 55 15.5525 88.3057 2 8 3
1973319N13090 1973 123 NI BB NOT_NAMED 1973-11-16 09:00:00 TS 16.0074 88.3352 main 490 444 P________PP___ IO131973 16.0125 88.3351 XX 55 -5 16.0125 88.3351 TC 55 15.9972 88.3356 2 9 6
1973319N13090 1973 123 NI BB NOT_NAMED 1973-11-16 12:00:00 TS 16.5000 88.4000 main 444 392 O________OO___ jtwc_io IO131973 16.5000 88.4000 XX 55 -5 16.5000 88.4000 TC 55 16.5000 88.4000 4 11 7
1973319N13090 1973 123 NI BB NOT_NAMED 1973-11-16 15:00:00 TS 17.1142 88.4843 main 392 346 P________PP___ IO131973 17.1275 88.4776 XX 55 -5 17.1275 88.4776 TC 55 17.0878 88.4977 4 13 9
1973319N13090 1973 123 NI BB NOT_NAMED 1973-11-16 18:00:00 TS 17.7758 88.6108 main 337 306 O________OP___ jtwc_io IO131973 17.8000 88.6000 XX 55 -5 17.8000 88.6000 TC 55 17.7274 88.6325 4 13 12
1973319N13090 1973 123 NI BB NOT_NAMED 1973-11-16 21:00:00 TS 18.4078 88.7854 main 306 278 P________PP___ IO131973 18.4225 88.7775 XX 55 -5 18.4225 88.7775 TC 55 18.3784 88.8010 4 13 17
1973319N13090 1973 123 NI BB NOT_NAMED 1973-11-17 00:00:00 TS 19.0000 89.0000 main 281 235 O________OO___ jtwc_io IO131973 19.0000 89.0000 XX 55 -5 19.0000 89.0000 TC 55 19.0000 89.0000 4 12 21
1973319N13090 1973 123 NI BB NOT_NAMED 1973-11-17 03:00:00 TS 19.5219 89.2329 main 235 183 P________PP___ IO131973 19.5150 89.2426 XX 55 -5 19.5150 89.2426 TC 55 19.5359 89.2135 4 11 24
1973319N13090 1973 123 NI BB NOT_NAMED 1973-11-17 06:00:00 TS 20.0125 89.4852 main 183 137 O________OP___ jtwc_io IO131973 20.0000 89.5000 XX 55 -5 20.0000 89.5000 TC 55 20.0374 89.4556 4 11 26
1973319N13090 1973 123 NI BB NOT_NAMED 1973-11-17 09:00:00 TS 20.5067 89.7351 main 137 90 P________PP___ IO131973 20.4999 89.7427 XX 52 -5 20.4999 89.7427 TC 52 20.5202 89.7199 4 11 26
1973319N13090 1973 123 NI BB NOT_NAMED 1973-11-17 12:00:00 TS 21.0000 90.0000 main 90 35 O________OO___ jtwc_io IO131973 21.0000 90.0000 XX 50 -5 21.0000 90.0000 TC 50 21.0000 90.0000 4 11 28
1973319N13090 1973 123 NI BB NOT_NAMED 1973-11-17 15:00:00 TS 21.4964 90.2918 main 35 0 P________PP___ IO131973 21.5000 90.2926 XX 50 -5 21.5000 90.2926 TC 50 21.4893 90.2902 4 11 29
1973319N13090 1973 123 NI BB NOT_NAMED 1973-11-17 18:00:00 TS 21.9960 90.5961 main 0 0 O________OP___ jtwc_io IO131973 22.0000 90.6000 XX 50 -5 22.0000 90.6000 TC 50 21.9880 90.5881 4 12 29
1973319N13090 1973 123 NI BB NOT_NAMED 1973-11-17 21:00:00 TS 22.4976 90.8987 main 0 0 P________PP___ IO131973 22.5001 90.9021 XX 45 -5 22.5001 90.9021 TC 45 22.4927 90.8920 4 12 29
1973319N13090 1973 123 NI BB NOT_NAMED 1973-11-18 00:00:00 TS 23.0000 91.2000 main 0 O________OO___ jtwc_io IO131973 23.0000 91.2000 XX 40 -5 23.0000 91.2000 TC 40 23.0000 91.2000 6 12 29

About IBTrACS Database

This database is a web-friendly format of International Best Track Archive for Climate Stewardship (IBTrACS), a global best track data archive curated by NOAA dating back to 1842.

Updated: 2021-11-26